Time;durP1;ratioP1;P1;durP2;ratioP2;P2;SDS_P1;SDS_P2;PMS_P1;PMS_P2;Temp;Humidity;BMP_temperature;BMP_pressure;BME280_temperature;BME280_humidity;BME280_pressure;Samples;Min_cycle;Max_cycle;Signal;HPM_P1;HPM_P2
2023/04/18 00:00:49;;;;;;;12.93;9.70;;;8.40;99.90;;;;;;12806608;23;20761;-88
2023/04/18 00:05:52;;;;;;;11.27;8.70;;;8.30;99.90;;;;;;12805434;23;20187;-88
2023/04/18 00:10:55;;;;;;;14.37;11.83;;;8.40;99.90;;;;;;12804924;23;20175;-88
2023/04/18 00:15:57;;;;;;;16.40;12.17;;;8.50;99.90;;;;;;12804835;23;20187;-88
2023/04/18 00:21:02;;;;;;;17.07;12.20;;;8.40;99.90;;;;;;12806349;23;20511;-88
2023/04/18 00:26:04;;;;;;;14.40;11.90;;;8.40;99.90;;;;;;12805395;23;20676;-88
2023/04/18 00:31:07;;;;;;;12.63;9.00;;;8.40;99.90;;;;;;12805616;23;20507;-88
2023/04/18 00:36:10;;;;;;;13.30;11.00;;;8.30;99.90;;;;;;12803165;23;20175;-88
2023/04/18 00:41:12;;;;;;;16.17;11.43;;;8.30;99.90;;;;;;12823912;23;20171;-88
2023/04/18 00:46:15;;;;;;;15.63;12.63;;;8.20;99.90;;;;;;12778051;23;20588;-88
2023/04/18 00:51:18;;;;;;;14.70;11.07;;;8.30;99.90;;;;;;12777904;23;20179;-88
2023/04/18 00:56:22;;;;;;;15.20;11.83;;;8.30;99.90;;;;;;12805234;23;20199;-88
2023/04/18 01:01:25;;;;;;;14.27;11.60;;;8.20;99.90;;;;;;12804128;23;20202;-88
2023/04/18 01:06:28;;;;;;;16.07;12.37;;;8.30;99.90;;;;;;12777764;23;20196;-88
2023/04/18 01:11:31;;;;;;;19.33;12.80;;;8.20;99.90;;;;;;12804406;23;20168;-88
2023/04/18 01:16:35;;;;;;;15.07;11.43;;;8.30;99.90;;;;;;12804452;23;20230;-88
2023/04/18 01:21:42;;;;;;;15.97;11.87;;;8.40;99.90;;;;;;12776719;23;20238;-88
2023/04/18 01:26:47;;;;;;;17.43;13.87;;;8.30;99.90;;;;;;12822020;23;20242;-88
2023/04/18 01:31:50;;;;;;;16.03;11.73;;;8.40;99.90;;;;;;12777755;23;20214;-88
2023/04/18 01:36:52;;;;;;;18.63;13.83;;;8.40;99.90;;;;;;12776515;23;20183;-88
2023/04/18 01:41:55;;;;;;;15.77;12.37;;;8.40;99.90;;;;;;12803589;23;20168;-88
2023/04/18 01:46:57;;;;;;;16.13;12.93;;;8.60;99.90;;;;;;12804803;23;20671;-88
2023/04/18 01:52:00;;;;;;;18.67;13.53;;;8.50;99.90;;;;;;12776574;23;20187;-88
2023/04/18 01:57:03;;;;;;;19.17;14.17;;;8.50;99.90;;;;;;12802397;23;20179;-88
2023/04/18 02:02:06;;;;;;;19.43;13.47;;;8.40;99.90;;;;;;12776746;23;20590;-87
2023/04/18 02:07:10;;;;;;;21.67;14.70;;;8.20;99.90;;;;;;12777236;23;20199;-88
2023/04/18 02:12:12;;;;;;;18.47;14.23;;;8.30;99.90;;;;;;12776055;23;20178;-88
2023/04/18 02:17:15;;;;;;;19.77;14.40;;;8.30;99.90;;;;;;12776551;23;20183;-88
2023/04/18 02:22:18;;;;;;;15.13;11.50;;;8.30;99.90;;;;;;12777213;23;20183;-88
2023/04/18 02:27:20;;;;;;;15.80;11.87;;;8.10;99.90;;;;;;12776447;23;20230;-88
2023/04/18 02:32:23;;;;;;;20.87;13.90;;;8.10;99.90;;;;;;12802570;23;20234;-88
2023/04/18 02:37:25;;;;;;;17.67;14.20;;;8.30;99.90;;;;;;12776217;23;20183;-88
2023/04/18 02:42:28;;;;;;;19.90;14.33;;;8.20;99.90;;;;;;12776210;23;20179;-88
2023/04/18 02:47:30;;;;;;;17.73;13.67;;;8.10;99.90;;;;;;12775958;23;20199;-88
2023/04/18 02:52:51;;;;;;;18.73;13.50;;;8.10;99.90;;;;;;12776977;23;20184;-88
2023/04/18 02:57:56;;;;;;;18.60;14.10;;;8.00;99.90;;;;;;12776226;23;20186;-88
2023/04/18 03:03:17;;;;;;;19.50;14.20;;;8.00;99.90;;;;;;12823324;23;20199;-88
2023/04/18 03:08:50;;;;;;;19.53;13.27;;;8.10;99.90;;;;;;12693660;23;20205;-88
2023/04/18 03:13:53;;;;;;;17.00;12.43;;;8.10;99.90;;;;;;12648936;23;20239;-88
2023/04/18 03:18:58;;;;;;;16.90;13.50;;;8.10;99.90;;;;;;12673791;23;20183;-88
2023/04/18 03:24:01;;;;;;;21.83;15.23;;;8.10;99.90;;;;;;12649478;23;20284;-88
2023/04/18 03:29:05;;;;;;;15.43;13.07;;;8.10;99.90;;;;;;12648776;23;20607;-88
2023/04/18 03:34:07;;;;;;;15.53;12.10;;;8.20;99.90;;;;;;12647973;23;20208;-89
2023/04/18 03:39:11;;;;;;;17.73;13.67;;;8.40;99.90;;;;;;12649517;23;20229;-89
2023/04/18 03:44:13;;;;;;;18.40;13.30;;;8.30;99.90;;;;;;12718114;23;20180;-89
2023/04/18 03:49:17;;;;;;;19.00;15.00;;;8.40;99.90;;;;;;12773657;23;20562;-89
2023/04/18 03:54:19;;;;;;;16.33;12.73;;;8.50;99.90;;;;;;12772713;23;20230;-89
2023/04/18 03:59:24;;;;;;;20.53;14.07;;;8.60;99.90;;;;;;12774721;23;20208;-89
2023/04/18 04:04:27;;;;;;;15.17;11.53;;;8.30;99.90;;;;;;12784312;23;20175;-89
2023/04/18 04:09:30;;;;;;;11.77;9.20;;;8.40;99.90;;;;;;12778207;23;20202;-89
2023/04/18 04:14:34;;;;;;;17.83;14.40;;;8.80;99.90;;;;;;12777602;23;20175;-88
2023/04/18 04:19:38;;;;;;;19.63;14.57;;;8.60;99.90;;;;;;12778174;23;20208;-88
2023/04/18 04:24:45;;;;;;;20.43;16.00;;;8.60;99.90;;;;;;12822174;23;20171;-88
2023/04/18 04:29:52;;;;;;;24.70;15.03;;;8.50;99.90;;;;;;12776152;23;20203;-88
2023/04/18 04:34:55;;;;;;;18.47;14.20;;;8.50;99.90;;;;;;12777638;23;20242;-88
2023/04/18 04:39:59;;;;;;;18.43;14.50;;;8.40;99.90;;;;;;12778502;23;20168;-88
2023/04/18 04:45:24;;;;;;;19.77;15.47;;;8.30;99.90;;;;;;12776729;23;20183;-89
2023/04/18 04:50:27;;;;;;;18.93;13.90;;;8.30;99.90;;;;;;12776984;23;20175;-89
2023/04/18 04:55:29;;;;;;;17.53;13.40;;;8.40;99.90;;;;;;12802631;23;20171;-89
2023/04/18 05:00:32;;;;;;;20.00;16.87;;;8.50;99.90;;;;;;12777184;23;20210;-89
2023/04/18 05:05:35;;;;;;;18.03;14.17;;;8.60;99.90;;;;;;12776549;23;20269;-88
2023/04/18 05:10:38;;;;;;;21.90;16.37;;;8.60;99.90;;;;;;12802735;23;20230;-89
2023/04/18 05:15:40;;;;;;;21.57;17.97;;;8.80;99.90;;;;;;12777916;23;20172;-91
2023/04/18 05:20:43;;;;;;;17.40;12.97;;;9.10;99.90;;;;;;12777134;23;20180;-89
2023/04/18 05:25:45;;;;;;;20.57;15.00;;;9.60;99.90;;;;;;12803897;23;20183;-88
2023/04/18 05:30:48;;;;;;;23.80;16.13;;;9.50;99.90;;;;;;12777444;23;20180;-89
2023/04/18 05:35:50;;;;;;;20.97;14.73;;;9.60;99.90;;;;;;12805284;23;20226;-88
2023/04/18 05:40:54;;;;;;;16.80;12.03;;;9.60;99.90;;;;;;12803949;23;20183;-89
2023/04/18 05:45:57;;;;;;;20.57;14.57;;;9.50;99.90;;;;;;12802667;23;20272;-88
2023/04/18 05:50:59;;;;;;;16.90;11.80;;;9.80;99.90;;;;;;12804090;23;20190;-89
2023/04/18 05:56:03;;;;;;;16.33;11.77;;;9.90;99.90;;;;;;12777958;23;20248;-89
2023/04/18 06:01:06;;;;;;;17.27;12.77;;;10.10;99.90;;;;;;12776464;23;20285;-89
2023/04/18 06:06:09;;;;;;;20.00;12.60;;;9.90;99.90;;;;;;12804005;23;20230;-89
2023/04/18 06:11:14;;;;;;;16.23;12.37;;;10.00;99.90;;;;;;12802801;23;20172;-89
2023/04/18 06:16:16;;;;;;;8.67;7.73;;;10.40;99.90;;;;;;12775562;23;20214;-90
2023/04/18 06:21:20;;;;;;;19.63;12.53;;;10.70;99.90;;;;;;12801643;23;20207;-91
2023/04/18 06:26:23;;;;;;;17.27;13.07;;;10.90;99.90;;;;;;12801233;23;20203;-90
2023/04/18 06:31:26;;;;;;;20.20;14.07;;;11.10;99.90;;;;;;12801957;23;20200;-89
2023/04/18 06:36:28;;;;;;;20.87;15.13;;;11.30;99.90;;;;;;12800927;23;20168;-88
2023/04/18 06:41:31;;;;;;;17.47;13.60;;;10.90;99.90;;;;;;12775484;23;20207;-87
2023/04/18 06:46:34;;;;;;;21.57;14.27;;;10.90;99.90;;;;;;12775414;23;20254;-88
2023/04/18 06:51:36;;;;;;;17.93;11.60;;;10.20;99.90;;;;;;12802192;23;20191;-89
2023/04/18 06:56:39;;;;;;;12.10;6.50;;;10.50;99.90;;;;;;12777777;23;20505;-90
2023/04/18 07:01:41;;;;;;;15.93;10.97;;;10.80;99.90;;;;;;12800686;23;20234;-91
2023/04/18 07:06:44;;;;;;;6.00;5.13;;;11.10;99.90;;;;;;12773968;23;20187;-88
2023/04/18 07:11:46;;;;;;;21.17;13.57;;;11.20;99.90;;;;;;12798014;23;20180;-89
2023/04/18 07:16:49;;;;;;;13.17;10.30;;;11.30;99.90;;;;;;12796928;23;20186;-90
2023/04/18 07:21:54;;;;;;;19.20;13.43;;;;;;;;;;12790493;23;20168;-90
2023/04/18 07:26:57;;;;;;;19.23;13.20;;;11.80;99.90;;;;;;12772067;23;20196;-90
2023/04/18 07:31:59;;;;;;;13.47;11.50;;;11.90;99.90;;;;;;12793444;23;20172;-89
2023/04/18 07:37:02;;;;;;;11.87;8.13;;;11.80;99.90;;;;;;12768068;23;20210;-90
2023/04/18 07:42:06;;;;;;;16.93;10.83;;;12.10;99.90;;;;;;12793579;23;20183;-90
2023/04/18 07:47:09;;;;;;;21.10;14.57;;;11.90;99.90;;;;;;12768962;23;20191;-90
2023/04/18 07:52:12;;;;;;;15.50;11.47;;;11.90;99.90;;;;;;12785073;23;20160;-90
2023/04/18 07:57:14;;;;;;;5.40;4.27;;;12.20;99.90;;;;;;12793744;23;20226;-90
2023/04/18 08:02:16;;;;;;;14.00;10.43;;;12.50;99.90;;;;;;12793169;23;20203;-89
2023/04/18 08:07:19;;;;;;;17.17;12.20;;;12.90;99.90;;;;;;12766239;23;20204;-89
2023/04/18 08:12:22;;;;;;;14.90;10.47;;;12.80;99.90;;;;;;12794072;23;20159;-89
2023/04/18 08:17:24;;;;;;;11.90;7.70;;;12.90;99.90;;;;;;12793051;23;20231;-88
2023/04/18 08:22:27;;;;;;;8.87;7.60;;;13.40;99.90;;;;;;12791738;23;20262;-88
2023/04/18 08:27:30;;;;;;;21.87;13.00;;;13.70;99.90;;;;;;12765592;23;20269;-88
2023/04/18 08:32:34;;;;;;;17.03;12.00;;;13.80;99.90;;;;;;12790665;23;20180;-89
2023/04/18 08:37:37;;;;;;;5.27;4.60;;;13.80;99.90;;;;;;12807889;23;20698;-90
2023/04/18 08:42:43;;;;;;;15.00;11.03;;;14.70;99.90;;;;;;12764437;23;20184;-89
2023/04/18 08:47:46;;;;;;;11.03;8.30;;;15.00;99.90;;;;;;12789455;23;20718;-90
2023/04/18 08:52:50;;;;;;;16.50;12.90;;;15.60;99.90;;;;;;12791942;23;20214;-89
2023/04/18 08:57:54;;;;;;;8.63;6.67;;;16.10;99.60;;;;;;12789927;23;20181;-90
2023/04/18 09:02:57;;;;;;;7.50;4.77;;;16.20;97.60;;;;;;12764515;23;20279;-89
2023/04/18 09:08:22;;;;;;;15.67;11.40;;;16.40;98.70;;;;;;12807280;23;20191;-89
2023/04/18 09:13:46;;;;;;;15.90;10.80;;;16.40;97.70;;;;;;12764121;23;20216;-90
2023/04/18 09:19:09;;;;;;;5.90;4.53;;;16.60;96.90;;;;;;12762920;23;20183;-89
2023/04/18 09:24:21;;;;;;;9.77;6.73;;;16.50;95.50;;;;;;12789935;23;20171;-89
2023/04/18 09:29:45;;;;;;;13.37;10.00;;;16.40;94.30;;;;;;12788094;23;20445;-90
2023/04/18 09:34:47;;;;;;;16.10;11.70;;;16.10;94.90;;;;;;12807793;23;20230;-89
2023/04/18 09:39:50;;;;;;;12.13;9.40;;;15.80;94.90;;;;;;12788373;23;20183;-89
2023/04/18 09:45:12;;;;;;;24.30;12.83;;;15.50;94.90;;;;;;12790135;23;20184;-89
2023/04/18 09:50:16;;;;;;;17.43;12.43;;;15.30;94.90;;;;;;12807771;23;20285;-90
2023/04/18 09:55:20;;;;;;;19.03;14.20;;;15.00;95.40;;;;;;12788564;23;20176;-90
2023/04/18 10:00:26;;;;;;;21.10;14.50;;;15.00;95.70;;;;;;12763259;23;20266;-89
2023/04/18 10:05:34;;;;;;;20.33;13.87;;;14.70;96.10;;;;;;12788772;23;20184;-89
2023/04/18 10:10:37;;;;;;;8.43;7.37;;;14.90;97.20;;;;;;12804748;23;20215;-89
2023/04/18 10:15:41;;;;;;;12.50;9.67;;;15.40;97.10;;;;;;12787549;23;20250;-90
2023/04/18 10:20:46;;;;;;;18.43;14.00;;;15.00;97.20;;;;;;12785614;23;20241;-89
2023/04/18 10:25:49;;;;;;;20.97;15.13;;;15.10;96.40;;;;;;12763558;23;20238;-88
2023/04/18 10:30:55;;;;;;;16.07;11.10;;;14.90;96.30;;;;;;12788563;23;20267;-85
2023/04/18 10:35:57;;;;;;;13.43;10.17;;;14.90;96.90;;;;;;12807796;23;20168;-89
2023/04/18 10:41:12;;;;;;;21.13;12.77;;;15.20;97.00;;;;;;12790517;23;20164;-89
2023/04/18 10:46:15;;;;;;;23.73;15.53;;;15.30;96.70;;;;;;12766314;23;20241;-89
2023/04/18 10:51:33;;;;;;;22.83;15.67;;;15.20;95.50;;;;;;12791047;23;20714;-88
2023/04/18 10:56:36;;;;;;;18.57;14.43;;;14.60;96.10;;;;;;12762583;23;20215;-88
2023/04/18 11:01:45;;;;;;;19.37;14.97;;;14.40;97.00;;;;;;12788643;23;20270;-89
2023/04/18 11:06:54;;;;;;;17.37;12.63;;;14.40;97.60;;;;;;12808220;23;20198;-90
2023/04/18 11:12:08;;;;;;;20.07;13.77;;;14.80;98.90;;;;;;12811255;23;20191;-89
2023/04/18 11:17:17;;;;;;;17.40;12.50;;;14.50;97.10;;;;;;12766546;23;20261;-89
2023/04/18 11:22:20;;;;;;;12.57;8.57;;;14.70;98.90;;;;;;12766445;23;20183;-89
2023/04/18 11:27:24;;;;;;;17.57;13.40;;;14.70;99.70;;;;;;12792807;23;20199;-88
2023/04/18 11:32:27;;;;;;;19.33;13.67;;;14.50;97.60;;;;;;12766975;23;20183;-88
2023/04/18 11:37:31;;;;;;;17.13;10.97;;;14.50;98.60;;;;;;12811360;23;20172;-88
2023/04/18 11:42:34;;;;;;;22.07;13.83;;;14.60;98.50;;;;;;12792236;23;20183;-89
2023/04/18 11:47:38;;;;;;;15.00;12.00;;;14.60;99.20;;;;;;12765842;23;20238;-89
2023/04/18 11:52:41;;;;;;;16.97;12.23;;;14.70;97.80;;;;;;12766351;23;20180;-88
2023/04/18 11:57:55;;;;;;;19.50;13.97;;;14.70;98.30;;;;;;12765860;23;20252;-85
2023/04/18 12:02:58;;;;;;;17.53;12.60;;;14.90;97.60;;;;;;12789885;23;20207;-91
2023/04/18 12:08:10;;;;;;;14.27;9.93;;;15.20;97.80;;;;;;12810624;23;20191;-90
2023/04/18 12:13:13;;;;;;;22.70;14.07;;;15.30;97.70;;;;;;12764801;23;20179;-91
2023/04/18 12:18:18;;;;;;;17.50;12.77;;;15.60;96.00;;;;;;12790290;23;20184;-90
2023/04/18 12:23:31;;;;;;;20.47;14.53;;;15.70;95.50;;;;;;12766473;23;20224;-88
2023/04/18 12:28:34;;;;;;;20.60;16.80;;;15.60;94.90;;;;;;12765171;23;20204;-89
2023/04/18 12:33:37;;;;;;;25.70;15.73;;;15.30;96.10;;;;;;12792258;23;20168;-89
2023/04/18 12:38:39;;;;;;;14.57;10.20;;;15.70;96.20;;;;;;12792183;23;20243;-89
2023/04/18 12:43:42;;;;;;;18.17;14.93;;;16.00;96.30;;;;;;12766049;23;20506;-89
2023/04/18 12:48:44;;;;;;;17.30;11.60;;;16.00;96.20;;;;;;12791455;23;20203;-89
2023/04/18 12:53:47;;;;;;;19.53;13.63;;;16.30;95.90;;;;;;12765888;23;20176;-88
2023/04/18 12:58:49;;;;;;;16.77;13.73;;;16.20;93.50;;;;;;12792040;23;20222;-89
2023/04/18 13:03:52;;;;;;;16.27;13.23;;;16.10;93.00;;;;;;12791959;23;20542;-89
2023/04/18 13:09:05;;;;;;;18.97;12.43;;;16.00;94.00;;;;;;12790106;23;20204;-89
2023/04/18 13:14:08;;;;;;;13.63;10.87;;;16.10;94.00;;;;;;12764362;23;20180;-89
2023/04/18 13:19:10;;;;;;;17.03;12.37;;;15.90;92.70;;;;;;12790851;23;20195;-88
2023/04/18 13:24:13;;;;;;;16.03;12.37;;;15.90;94.00;;;;;;12766167;23;20242;-88
2023/04/18 13:29:16;;;;;;;16.63;12.00;;;15.70;93.50;;;;;;12791500;23;20197;-89
2023/04/18 13:34:19;;;;;;;16.57;13.27;;;15.90;93.60;;;;;;12764964;23;20180;-88
2023/04/18 13:39:23;;;;;;;31.57;21.97;;;15.80;92.40;;;;;;12765277;23;20179;-88
2023/04/18 13:44:25;;;;;;;21.07;16.03;;;15.90;93.90;;;;;;12765360;23;20180;-88
2023/04/18 13:49:28;;;;;;;18.13;14.77;;;15.90;92.60;;;;;;12792506;23;20199;-88
2023/04/18 13:54:31;;;;;;;18.63;13.17;;;15.80;93.10;;;;;;12767369;23;20180;-88
2023/04/18 13:59:34;;;;;;;21.40;17.03;;;15.50;93.50;;;;;;12766797;23;20282;-88
2023/04/18 14:04:38;;;;;;;59.63;36.57;;;15.30;93.60;;;;;;12794491;23;20187;-88
2023/04/18 14:09:41;;;;;;;16.90;13.57;;;15.10;94.90;;;;;;12792816;23;20242;-88
2023/04/18 14:14:43;;;;;;;21.50;15.20;;;14.80;96.20;;;;;;12767255;23;20171;-88
2023/04/18 14:19:46;;;;;;;86.10;50.00;;;14.70;95.60;;;;;;12766501;23;20172;-88
2023/04/18 14:24:51;;;;;;;41.07;22.63;;;14.70;96.30;;;;;;12767787;23;20168;-88
2023/04/18 14:29:53;;;;;;;17.37;14.07;;;14.80;96.90;;;;;;12792501;23;20246;-88
2023/04/18 14:34:57;;;;;;;39.07;20.23;;;14.50;96.00;;;;;;12789084;23;20496;-89
2023/04/18 14:40:00;;;;;;;13.80;11.03;;;14.40;95.90;;;;;;12790589;23;20184;-89
2023/04/18 14:45:04;;;;;;;13.13;9.23;;;14.30;95.80;;;;;;12763064;23;20242;-88
2023/04/18 14:50:07;;;;;;;16.20;10.97;;;14.20;95.30;;;;;;12787855;23;20207;-88
2023/04/18 14:55:10;;;;;;;26.63;13.57;;;14.50;95.70;;;;;;12807359;23;20167;-88
2023/04/18 15:00:13;;;;;;;11.83;7.70;;;15.00;97.90;;;;;;12763520;23;20667;-88
2023/04/18 15:05:17;;;;;;;19.80;11.63;;;15.30;98.80;;;;;;12765455;23;20184;-88
2023/04/18 15:10:21;;;;;;;16.17;10.83;;;15.40;94.30;;;;;;12790195;23;20183;-86
2023/04/18 15:15:24;;;;;;;12.20;10.03;;;15.60;91.20;;;;;;12801491;23;20172;-87
2023/04/18 15:20:27;;;;;;;12.43;9.97;;;15.90;91.20;;;;;;12766130;23;20173;-88
2023/04/18 15:25:30;;;;;;;12.83;10.57;;;16.00;92.30;;;;;;12767156;23;20238;-89
2023/04/18 15:30:32;;;;;;;14.57;11.83;;;15.70;91.30;;;;;;12793311;23;20538;-89
2023/04/18 15:35:35;;;;;;;12.37;10.90;;;15.70;91.10;;;;;;12793827;23;20176;-88
2023/04/18 15:40:37;;;;;;;13.23;9.93;;;15.60;92.60;;;;;;12792994;23;20631;-88
2023/04/18 15:45:43;;;;;;;14.73;12.23;;;15.80;95.40;;;;;;12765908;23;20188;-88
2023/04/18 15:50:49;;;;;;;17.67;12.30;;;15.20;92.10;;;;;;12740066;23;20596;-90
2023/04/18 15:55:52;;;;;;;13.53;11.93;;;14.90;93.70;;;;;;12795012;23;20223;-90
2023/04/18 16:00:56;;;;;;;16.80;13.03;;;14.70;95.00;;;;;;12770758;23;20203;-88
2023/04/18 16:05:58;;;;;;;14.83;12.80;;;14.60;93.80;;;;;;12795456;23;20176;-90
2023/04/18 16:11:01;;;;;;;16.43;13.37;;;14.50;95.50;;;;;;12796280;23;20188;-91
2023/04/18 16:16:04;;;;;;;16.97;14.10;;;14.40;95.40;;;;;;12770006;23;20319;-91
2023/04/18 16:21:07;;;;;;;16.83;11.00;;;14.10;95.40;;;;;;12769864;23;20179;-90
2023/04/18 16:26:09;;;;;;;19.10;13.10;;;14.20;96.20;;;;;;12743775;23;20184;-89
2023/04/18 16:31:13;;;;;;;15.23;12.03;;;13.90;96.00;;;;;;12794937;23;20191;-91
2023/04/18 16:36:16;;;;;;;15.77;12.20;;;13.80;97.40;;;;;;12768674;23;20238;-89
2023/04/18 16:41:19;;;;;;;24.70;13.37;;;;;;;;;;12768409;23;20183;-90
2023/04/18 16:46:21;;;;;;;15.33;12.20;;;13.60;98.10;;;;;;12776805;23;20176;-92
2023/04/18 16:51:25;;;;;;;14.60;11.67;;;13.60;98.20;;;;;;12768955;23;20709;-91
2023/04/18 16:56:28;;;;;;;16.73;12.33;;;13.50;99.00;;;;;;12792900;23;20184;-92
2023/04/18 17:01:32;;;;;;;14.67;11.77;;;13.40;98.80;;;;;;12795616;23;20311;-92
2023/04/18 17:06:35;;;;;;;14.47;11.63;;;13.30;99.30;;;;;;12742903;23;20180;-89
2023/04/18 17:11:39;;;;;;;22.33;11.63;;;13.20;99.70;;;;;;12768146;23;20269;-91
2023/04/18 17:16:42;;;;;;;15.57;12.23;;;13.10;99.90;;;;;;12794664;23;20175;-93
2023/04/18 17:21:45;;;;;;;14.00;11.33;;;13.00;99.90;;;;;;12771618;23;20180;-89
2023/04/18 17:26:48;;;;;;;15.93;12.90;;;12.80;99.90;;;;;;12768966;23;20172;-90
2023/04/18 17:31:50;;;;;;;16.37;11.07;;;12.60;99.90;;;;;;12793728;23;20187;-91
2023/04/18 17:36:53;;;;;;;15.80;12.23;;;12.60;99.90;;;;;;12793647;23;20179;-89
2023/04/18 17:41:56;;;;;;;15.30;11.37;;;12.60;99.90;;;;;;12813583;23;20175;-89
2023/04/18 17:46:59;;;;;;;15.93;10.83;;;12.70;99.90;;;;;;12793838;23;20295;-88
2023/04/18 17:52:02;;;;;;;13.17;11.50;;;12.70;99.90;;;;;;12793114;23;20724;-88
2023/04/18 17:57:05;;;;;;;14.00;11.10;;;12.70;99.90;;;;;;12791863;23;20210;-94
2023/04/18 18:02:10;;;;;;;13.90;11.60;;;12.70;99.90;;;;;;12767581;23;20215;-88
2023/04/18 18:07:12;;;;;;;17.20;12.43;;;12.60;99.90;;;;;;12793237;23;20175;-89
2023/04/18 18:12:15;;;;;;;13.70;11.67;;;12.50;99.90;;;;;;12793392;23;20194;-93
2023/04/18 18:17:18;;;;;;;15.87;11.80;;;12.40;99.90;;;;;;12794265;23;20176;-90
2023/04/18 18:22:23;;;;;;;16.40;13.03;;;12.30;99.90;;;;;;12792184;23;20174;-86
2023/04/18 18:27:26;;;;;;;17.37;13.50;;;12.20;99.90;;;;;;12784279;23;20175;-86
2023/04/18 18:32:28;;;;;;;16.37;13.87;;;12.10;99.90;;;;;;12791741;23;20207;-87
2023/04/18 18:37:31;;;;;;;17.87;13.87;;;12.10;99.90;;;;;;12792222;23;20206;-88
2023/04/18 18:42:34;;;;;;;20.83;13.90;;;11.90;99.90;;;;;;12766557;23;20170;-86
2023/04/18 18:47:36;;;;;;;19.13;13.63;;;11.90;99.90;;;;;;12792858;23;20178;-86
2023/04/18 18:52:42;;;;;;;16.77;12.73;;;11.90;99.90;;;;;;12765788;23;20207;-85
2023/04/18 18:57:44;;;;;;;17.80;12.77;;;11.80;99.90;;;;;;12791933;23;20179;-85
2023/04/18 19:02:47;;;;;;;19.87;13.00;;;11.70;99.90;;;;;;12767370;23;20528;-88
2023/04/18 19:07:50;;;;;;;18.30;14.07;;;11.70;99.90;;;;;;12766974;23;20183;-89
2023/04/18 19:12:53;;;;;;;17.00;12.87;;;11.60;99.90;;;;;;12798456;23;20214;-95
2023/04/18 19:17:55;;;;;;;20.40;14.43;;;11.50;99.90;;;;;;12770009;23;20182;-93
2023/04/18 19:22:58;;;;;;;18.00;14.67;;;11.50;99.90;;;;;;12795487;23;20523;-91
2023/04/18 19:28:00;;;;;;;18.60;13.73;;;11.40;99.90;;;;;;12797941;23;20183;-94
2023/04/18 19:33:03;;;;;;;19.37;15.07;;;11.30;99.90;;;;;;12799361;23;20199;-94
2023/04/18 19:38:06;;;;;;;20.60;14.43;;;11.20;99.90;;;;;;12813416;23;20182;-93
2023/04/18 19:43:08;;;;;;;14.77;9.60;;;11.20;99.90;;;;;;12812295;23;20246;-96
2023/04/18 19:48:11;;;;;;;17.50;13.30;;;11.10;99.90;;;;;;12800915;23;20662;-80
2023/04/18 19:53:14;;;;;;;17.17;12.50;;;11.10;99.90;;;;;;12793141;23;20191;-80
2023/04/18 19:58:38;;;;;;;14.47;11.47;;;11.10;99.90;;;;;;12792605;23;20639;-80
2023/04/18 20:03:41;;;;;;;17.90;11.47;;;11.00;99.90;;;;;;12768147;23;20987;-81
2023/04/18 20:08:44;;;;;;;20.97;12.67;;;10.90;99.90;;;;;;12768005;23;20184;-82
2023/04/18 20:13:48;;;;;;;18.00;12.10;;;10.80;99.90;;;;;;12767708;23;20235;-81
2023/04/18 20:18:50;;;;;;;15.67;10.70;;;10.80;99.90;;;;;;12786787;23;20507;-81
2023/04/18 20:23:57;;;;;;;12.57;9.03;;;10.70;99.90;;;;;;12794150;23;20171;-78
2023/04/18 20:28:59;;;;;;;13.80;10.47;;;10.80;99.90;;;;;;12793965;23;20176;-78
2023/04/18 20:34:02;;;;;;;10.97;8.83;;;11.00;99.90;;;;;;12810843;23;20230;-79
2023/04/18 20:39:05;;;;;;;13.30;10.27;;;10.90;99.90;;;;;;12793899;23;20168;-80
2023/04/18 20:44:08;;;;;;;10.43;8.57;;;10.80;99.90;;;;;;12793426;23;20180;-80
2023/04/18 20:49:11;;;;;;;11.27;9.00;;;10.70;99.90;;;;;;12794566;23;20200;-79
2023/04/18 20:54:14;;;;;;;12.07;8.90;;;10.70;99.90;;;;;;12766845;23;20176;-79
2023/04/18 20:59:18;;;;;;;12.23;10.03;;;10.70;99.90;;;;;;12765368;23;20188;-81
2023/04/18 21:04:20;;;;;;;11.87;9.07;;;10.50;99.90;;;;;;12765989;23;20242;-81
2023/04/18 21:09:23;;;;;;;13.13;11.17;;;10.60;99.90;;;;;;12788046;23;20246;-81
2023/04/18 21:14:25;;;;;;;14.43;9.30;;;10.40;99.90;;;;;;12765046;23;20183;-81
2023/04/18 21:19:28;;;;;;;12.60;9.03;;;10.30;99.90;;;;;;12792205;23;20175;-80
2023/04/18 21:24:30;;;;;;;17.87;8.90;;;10.20;99.90;;;;;;12762674;23;20179;-81
2023/04/18 21:29:33;;;;;;;10.53;8.90;;;10.00;99.90;;;;;;12790576;23;20301;-81
2023/04/18 21:34:36;;;;;;;12.20;8.67;;;10.00;99.90;;;;;;12764439;23;20206;-79
2023/04/18 21:39:38;;;;;;;12.20;8.77;;;10.00;99.90;;;;;;12789962;23;20728;-79
2023/04/18 21:44:41;;;;;;;9.93;7.40;;;9.90;99.90;;;;;;12790533;23;20512;-79
2023/04/18 21:49:43;;;;;;;11.70;7.30;;;9.80;97.10;;;;;;12783308;23;20563;-81
2023/04/18 21:54:46;;;;;;;9.53;7.27;;;9.80;95.10;;;;;;12765317;23;20554;-87
2023/04/18 21:59:49;;;;;;;9.63;7.27;;;9.80;94.30;;;;;;12789976;23;20191;-83
2023/04/18 22:04:51;;;;;;;13.37;7.57;;;9.70;93.80;;;;;;12763847;23;20172;-81
2023/04/18 22:09:54;;;;;;;11.67;8.87;;;9.80;96.60;;;;;;12762787;23;20195;-81
2023/04/18 22:14:56;;;;;;;15.87;10.37;;;9.70;99.90;;;;;;12790064;23;20222;-81
2023/04/18 22:19:59;;;;;;;12.87;9.30;;;9.70;99.90;;;;;;12789198;23;20521;-81
2023/04/18 22:25:02;;;;;;;12.30;8.90;;;9.60;99.90;;;;;;12788813;23;20191;-79
2023/04/18 22:30:05;;;;;;;12.77;9.50;;;9.50;99.90;;;;;;12789400;23;20195;-79
2023/04/18 22:35:08;;;;;;;9.93;6.73;;;9.30;99.30;;;;;;12790161;23;20163;-79
2023/04/18 22:40:11;;;;;;;8.73;7.50;;;9.20;96.40;;;;;;12763626;23;20233;-79
2023/04/18 22:45:14;;;;;;;9.60;7.37;;;9.10;93.50;;;;;;12787993;23;20258;-79
2023/04/18 22:50:17;;;;;;;8.17;6.03;;;8.90;92.60;;;;;;12809078;23;20250;-79
2023/04/18 22:55:19;;;;;;;7.27;5.60;;;8.80;91.40;;;;;;12790350;23;20237;-79
2023/04/18 23:00:24;;;;;;;10.00;5.80;;;8.60;84.70;;;;;;12790259;23;20188;-79
2023/04/18 23:05:27;;;;;;;5.93;5.23;;;8.50;85.20;;;;;;12793496;23;20225;-79
2023/04/18 23:10:30;;;;;;;8.13;5.20;;;8.50;81.00;;;;;;12793888;23;20203;-79
2023/04/18 23:15:32;;;;;;;6.70;5.10;;;8.40;80.70;;;;;;12768867;23;20565;-80
2023/04/18 23:20:36;;;;;;;10.70;5.17;;;8.50;85.00;;;;;;12768723;23;20180;-79
2023/04/18 23:25:39;;;;;;;9.23;6.90;;;8.30;86.90;;;;;;12795657;23;20201;-79
2023/04/18 23:30:41;;;;;;;7.87;6.47;;;8.40;89.90;;;;;;12768692;23;20195;-80
2023/04/18 23:35:44;;;;;;;7.10;5.57;;;8.40;90.50;;;;;;12794903;23;20612;-79
2023/04/18 23:40:46;;;;;;;7.60;5.07;;;8.30;90.90;;;;;;12794393;23;20234;-79
2023/04/18 23:45:49;;;;;;;8.17;4.93;;;8.30;87.70;;;;;;12793272;23;20873;-79
2023/04/18 23:50:52;;;;;;;8.97;5.00;;;8.10;83.70;;;;;;12794301;23;20199;-79
2023/04/18 23:55:55;;;;;;;10.70;4.80;;;8.20;87.10;;;;;;12811369;23;20171;-79
